Rockford, Washington
Current Conditions -  °F | °C
As of 8:53 PM on Saturday 20 Dec 2014 (Local Time) from KSFF Reporting Station
Light Rain Light Rain  
Wind Chill: 38°   Ceiling: 1500
Heat Index: 42°   Visibility: 8mi
Dew Point: 39°   Wind: 7mph
Humidity: 89%   Direction: 110°ESE
Pressure: 29.56"   Gusts: NA
Location:  47.45°N, 117.13°W
Report Text: KSFF 210453Z AUTO 11006KT 8SM -RA OVC015 06/04 A2956 RMK AO2 SLP015 P0007 T00560039
Loading
Personal Weather Stations






























Interactive Weather Map New forecast layout! Learn more

10-Day Weather Forecast

Advertisements
Track Severe Weather on mobile